createdAt,value
2018-06-24T00:00:13.786Z,4.80
2018-06-24T00:02:42.957Z,6.10
2018-06-24T00:05:12.006Z,6.20
2018-06-24T00:07:41.071Z,6.30
2018-06-24T00:10:10.284Z,5.03
2018-06-24T00:12:39.332Z,6.00
2018-06-24T00:15:08.433Z,5.07
2018-06-24T00:17:37.457Z,5.83
2018-06-24T00:20:06.575Z,5.70
2018-06-24T00:22:35.636Z,5.70
2018-06-24T00:25:04.740Z,5.60
2018-06-24T00:27:33.830Z,6.23
2018-06-24T00:30:02.935Z,6.13
2018-06-24T00:32:31.996Z,5.10
2018-06-24T00:35:00.986Z,6.80
2018-06-24T00:37:30.089Z,5.67
2018-06-24T00:39:59.206Z,6.33
2018-06-24T00:42:28.202Z,5.97
2018-06-24T00:44:57.272Z,6.00
2018-06-24T00:47:26.273Z,5.93
2018-06-24T00:49:55.312Z,5.70
2018-06-24T00:52:24.329Z,6.10
2018-06-24T00:54:53.372Z,6.60
2018-06-24T00:57:22.425Z,6.10
2018-06-24T01:00:02.529Z,6.57
2018-06-24T01:02:31.687Z,6.13
2018-06-24T01:05:00.777Z,7.10
2018-06-24T01:07:29.386Z,6.27
2018-06-24T01:09:58.467Z,6.50
2018-06-24T01:12:27.570Z,6.70
2018-06-24T01:14:56.666Z,5.90
2018-06-24T01:17:25.846Z,5.80
2018-06-24T01:19:57.664Z,5.63
2018-06-24T01:22:27.140Z,5.93
2018-06-24T01:24:57.326Z,5.60
2018-06-24T01:27:26.422Z,5.30
2018-06-24T01:29:55.521Z,5.20
2018-06-24T01:32:25.010Z,5.30
2018-06-24T01:34:54.554Z,4.97
2018-06-24T01:37:23.562Z,5.30
2018-06-24T01:39:52.638Z,5.57
2018-06-24T01:42:21.677Z,4.93
2018-06-24T01:44:50.250Z,5.10
2018-06-24T01:47:19.255Z,5.40
2018-06-24T01:49:48.299Z,5.30
2018-06-24T01:52:17.411Z,5.17
2018-06-24T01:54:46.559Z,5.60
2018-06-24T01:57:15.554Z,4.57
2018-06-24T01:59:44.588Z,5.03
2018-06-24T02:02:13.642Z,5.23
2018-06-24T02:04:42.640Z,5.07
2018-06-24T02:07:11.693Z,5.60
2018-06-24T02:09:40.789Z,5.40
2018-06-24T02:12:09.884Z,4.90
2018-06-24T02:14:38.433Z,5.73
2018-06-24T02:17:07.472Z,4.93
2018-06-24T02:19:36.495Z,5.87
2018-06-24T02:22:05.620Z,4.90
2018-06-24T02:24:34.813Z,4.67
2018-06-24T02:27:03.862Z,4.60
2018-06-24T02:29:32.963Z,5.20
2018-06-24T02:32:01.994Z,5.10
2018-06-24T02:34:31.041Z,5.40
2018-06-24T02:37:00.211Z,4.97
2018-06-24T02:39:29.309Z,4.90
2018-06-24T02:41:58.456Z,5.10
2018-06-24T02:44:27.666Z,4.80
2018-06-24T02:46:56.771Z,4.40
2018-06-24T02:49:25.764Z,5.83
2018-06-24T02:51:54.836Z,6.23
2018-06-24T02:54:23.869Z,5.27
2018-06-24T02:56:52.455Z,4.93
2018-06-24T02:59:21.478Z,5.20
2018-06-24T03:01:50.541Z,5.20
2018-06-24T03:04:19.667Z,5.90
2018-06-24T03:06:48.727Z,5.87
2018-06-24T03:09:17.750Z,5.70
2018-06-24T03:11:46.832Z,6.27
2018-06-24T03:14:15.811Z,5.70
2018-06-24T03:16:44.848Z,5.63
2018-06-24T03:19:13.866Z,5.53
2018-06-24T03:21:42.970Z,5.40
2018-06-24T03:24:12.020Z,5.87
2018-06-24T03:26:41.009Z,5.23
2018-06-24T03:29:10.081Z,5.57
2018-06-24T03:31:39.104Z,5.27
2018-06-24T03:34:08.271Z,4.73
2018-06-24T03:36:37.416Z,5.70
2018-06-24T03:39:09.715Z,5.00
2018-06-24T03:41:38.827Z,4.70
2018-06-24T03:44:08.426Z,5.23
2018-06-24T03:46:37.572Z,4.83
2018-06-24T03:49:06.655Z,4.97
2018-06-24T03:51:35.722Z,5.37
2018-06-24T03:54:04.831Z,5.83
2018-06-24T03:56:33.950Z,5.80
2018-06-24T03:59:02.951Z,6.50
2018-06-24T04:01:31.951Z,5.67
2018-06-24T04:04:01.031Z,6.53
2018-06-24T04:06:30.321Z,5.97
2018-06-24T04:08:59.891Z,6.70
2018-06-24T04:11:28.956Z,6.30
2018-06-24T04:13:58.072Z,6.80
2018-06-24T04:16:27.186Z,5.93
2018-06-24T04:18:56.279Z,5.77
2018-06-24T04:21:25.379Z,6.00
2018-06-24T04:23:54.417Z,6.50
2018-06-24T04:26:23.527Z,5.90
2018-06-24T04:28:52.608Z,5.77
2018-06-24T04:31:21.648Z,6.13
2018-06-24T04:33:50.655Z,7.80
2018-06-24T04:36:19.702Z,6.33
2018-06-24T04:38:48.744Z,6.00
2018-06-24T04:41:17.800Z,6.40
2018-06-24T04:43:46.847Z,6.50
2018-06-24T04:46:15.914Z,6.17
2018-06-24T04:48:44.999Z,6.47
2018-06-24T04:51:14.059Z,5.83
2018-06-24T04:53:43.117Z,6.47
2018-06-24T04:56:12.122Z,6.97
2018-06-24T04:58:41.180Z,6.60
2018-06-24T05:01:10.203Z,5.90
2018-06-24T05:03:39.272Z,6.30
2018-06-24T05:06:08.304Z,6.97
2018-06-24T05:08:37.396Z,6.63
2018-06-24T05:11:06.449Z,6.70
2018-06-24T05:13:35.517Z,5.53
2018-06-24T05:16:04.639Z,6.80
2018-06-24T05:18:33.676Z,6.67
2018-06-24T05:21:02.706Z,6.57
2018-06-24T05:23:31.760Z,7.10
2018-06-24T05:26:00.827Z,5.60
2018-06-24T05:28:29.834Z,5.60
2018-06-24T05:30:58.931Z,5.63
2018-06-24T05:33:27.445Z,5.20
2018-06-24T05:35:56.505Z,5.60
2018-06-24T05:38:25.541Z,5.20
2018-06-24T05:40:54.534Z,6.07
2018-06-24T05:43:23.587Z,5.10
2018-06-24T05:45:52.577Z,5.10
2018-06-24T05:48:22.525Z,5.00
2018-06-24T05:50:51.520Z,5.43
2018-06-24T05:53:20.597Z,5.87
2018-06-24T05:55:49.817Z,5.47
2018-06-24T05:58:22.986Z,6.33
2018-06-24T06:00:52.113Z,4.70
2018-06-24T06:03:21.149Z,6.17
2018-06-24T06:05:50.222Z,6.50
2018-06-24T06:08:19.247Z,5.77
2018-06-24T06:10:48.300Z,6.40
2018-06-24T06:13:17.315Z,6.10
2018-06-24T06:15:46.436Z,5.57
2018-06-24T06:18:15.486Z,5.30
2018-06-24T06:20:44.480Z,4.40
2018-06-24T06:23:13.041Z,5.47
2018-06-24T06:25:42.054Z,5.13
2018-06-24T06:28:11.087Z,5.03
2018-06-24T06:30:40.146Z,5.63
2018-06-24T06:33:08.744Z,4.87
2018-06-24T06:35:37.779Z,5.17
2018-06-24T06:38:06.862Z,5.00
2018-06-24T06:40:35.896Z,4.60
2018-06-24T06:43:04.940Z,5.00
2018-06-24T06:45:34.217Z,5.30
2018-06-24T06:48:03.067Z,5.40
2018-06-24T06:50:32.109Z,5.10
2018-06-24T06:53:01.156Z,5.57
2018-06-24T06:55:30.188Z,4.80
2018-06-24T06:57:59.177Z,5.57
2018-06-24T07:00:28.244Z,5.20
2018-06-24T07:02:57.274Z,5.53
2018-06-24T07:05:26.371Z,6.40
2018-06-24T07:07:55.411Z,4.13
2018-06-24T07:10:24.398Z,5.37
2018-06-24T07:12:53.447Z,5.10
2018-06-24T07:15:22.446Z,4.97
2018-06-24T07:17:51.495Z,5.73
2018-06-24T07:20:20.540Z,5.93
2018-06-24T07:22:49.591Z,5.93
2018-06-24T07:25:18.547Z,5.73
2018-06-24T07:27:47.629Z,5.40
2018-06-24T07:30:16.655Z,5.03
2018-06-24T07:32:45.669Z,5.83
2018-06-24T07:35:14.834Z,4.93
2018-06-24T07:37:43.827Z,4.70
2018-06-24T07:40:12.855Z,5.53
2018-06-24T07:42:41.882Z,5.27
2018-06-24T07:45:10.926Z,5.10
2018-06-24T07:47:39.918Z,5.90
2018-06-24T07:50:09.626Z,5.60
2018-06-24T07:52:38.681Z,5.50
2018-06-24T07:55:07.694Z,5.37
2018-06-24T07:57:36.809Z,5.57
2018-06-24T08:00:06.225Z,5.10
2018-06-24T08:02:35.680Z,5.67
2018-06-24T08:05:05.194Z,5.47
2018-06-24T08:07:35.262Z,5.47
2018-06-24T08:10:04.310Z,5.90
2018-06-24T08:12:33.285Z,5.50
2018-06-24T08:15:02.399Z,4.50
2018-06-24T08:17:31.499Z,4.77
2018-06-24T08:20:00.545Z,5.33
2018-06-24T08:22:29.550Z,5.47
2018-06-24T08:24:58.583Z,5.00
2018-06-24T08:27:27.644Z,6.00
2018-06-24T08:29:56.230Z,6.37
2018-06-24T08:32:26.007Z,5.40
2018-06-24T08:34:55.035Z,5.97
2018-06-24T08:37:24.071Z,5.90
2018-06-24T08:39:53.074Z,5.60
2018-06-24T08:42:22.127Z,6.53
2018-06-24T08:44:51.253Z,5.80
2018-06-24T08:47:20.384Z,5.60
2018-06-24T08:49:49.446Z,5.23
2018-06-24T08:52:18.471Z,5.60
2018-06-24T08:54:47.540Z,5.53
2018-06-24T08:57:16.541Z,6.00
2018-06-24T08:59:45.639Z,5.50
2018-06-24T09:02:14.819Z,6.77
2018-06-24T09:04:43.842Z,5.50
2018-06-24T09:07:12.906Z,6.00
2018-06-24T09:09:41.960Z,5.80
2018-06-24T09:12:11.013Z,5.37
2018-06-24T09:14:40.067Z,4.80
2018-06-24T09:17:09.131Z,4.30
2018-06-24T09:19:38.150Z,4.80
2018-06-24T09:22:07.287Z,4.90
2018-06-24T09:24:36.356Z,4.73
2018-06-24T09:27:05.418Z,4.50
2018-06-24T09:29:34.431Z,4.10
2018-06-24T09:32:03.501Z,5.33
2018-06-24T09:34:32.555Z,4.63
2018-06-24T09:37:01.542Z,4.93
2018-06-24T09:39:30.569Z,4.50
2018-06-24T09:41:59.606Z,4.13
2018-06-24T09:44:28.632Z,3.93
2018-06-24T09:46:58.617Z,4.70
2018-06-24T09:49:27.651Z,4.43
2018-06-24T09:51:56.691Z,4.70
2018-06-24T09:54:25.866Z,4.23
2018-06-24T09:56:54.886Z,3.83
2018-06-24T09:59:23.876Z,3.40
2018-06-24T10:01:53.031Z,3.20
2018-06-24T10:04:22.063Z,3.60
2018-06-24T10:06:51.088Z,4.00
2018-06-24T10:09:20.107Z,4.17
2018-06-24T10:11:49.236Z,4.10
2018-06-24T10:14:18.254Z,3.83
2018-06-24T10:16:47.271Z,4.40
2018-06-24T10:19:16.299Z,3.70
2018-06-24T10:21:45.263Z,4.43
2018-06-24T10:24:14.288Z,4.20
2018-06-24T10:26:43.295Z,4.80
2018-06-24T10:29:12.322Z,4.77
2018-06-24T10:31:41.415Z,4.03
2018-06-24T10:34:10.502Z,3.60
2018-06-24T10:36:39.540Z,4.43
2018-06-24T10:39:10.493Z,4.83
2018-06-24T10:41:39.575Z,4.27
2018-06-24T10:44:08.952Z,4.80
2018-06-24T10:46:38.052Z,4.17
2018-06-24T10:49:07.122Z,4.03
2018-06-24T10:51:36.144Z,4.70
2018-06-24T10:54:05.240Z,4.50
2018-06-24T10:56:34.303Z,4.43
2018-06-24T10:59:03.336Z,3.90
2018-06-24T11:01:32.357Z,4.20
2018-06-24T11:04:01.409Z,4.17
2018-06-24T11:06:30.775Z,3.80
2018-06-24T11:08:59.906Z,3.70
2018-06-24T11:11:28.972Z,3.83
2018-06-24T11:13:58.075Z,4.00
2018-06-24T11:16:27.091Z,3.90
2018-06-24T11:18:56.234Z,3.87
2018-06-24T11:21:25.350Z,3.83
2018-06-24T11:23:54.404Z,4.07
2018-06-24T11:26:23.499Z,3.47
2018-06-24T11:28:52.577Z,2.60
2018-06-24T11:31:22.397Z,3.40
2018-06-24T11:33:51.412Z,3.33
2018-06-24T11:36:20.510Z,3.60
2018-06-24T11:38:49.543Z,3.70
2018-06-24T11:41:18.572Z,3.87
2018-06-24T11:43:47.673Z,3.43
2018-06-24T11:46:18.678Z,4.70
2018-06-24T11:48:47.770Z,4.27
2018-06-24T11:51:16.792Z,3.67
2018-06-24T11:53:45.811Z,3.73
2018-06-24T11:56:14.842Z,3.57
2018-06-24T11:58:43.850Z,3.50
2018-06-24T12:01:12.916Z,3.10
2018-06-24T12:03:42.681Z,3.43
2018-06-24T12:06:11.731Z,3.50
2018-06-24T12:08:40.751Z,3.73
2018-06-24T12:11:09.841Z,3.77
2018-06-24T12:13:38.866Z,3.33
2018-06-24T12:16:07.989Z,3.13
2018-06-24T12:18:37.142Z,2.90
2018-06-24T12:21:06.270Z,3.00
2018-06-24T12:23:35.331Z,2.97
2018-06-24T12:26:04.438Z,3.47
2018-06-24T12:28:33.475Z,2.70
2018-06-24T12:31:02.564Z,3.90
2018-06-24T12:33:31.642Z,3.20
2018-06-24T12:36:00.819Z,3.30
2018-06-24T12:38:29.861Z,4.10
2018-06-24T12:40:58.926Z,3.60
2018-06-24T12:43:28.017Z,2.97
2018-06-24T12:45:57.077Z,3.70
2018-06-24T12:48:27.093Z,3.30
2018-06-24T12:50:56.459Z,4.00
2018-06-24T12:53:25.548Z,3.53
2018-06-24T12:55:54.646Z,3.00
2018-06-24T12:58:23.876Z,3.30
2018-06-24T13:00:53.557Z,2.87
2018-06-24T13:03:21.925Z,2.73
2018-06-24T13:05:50.958Z,2.87
2018-06-24T13:08:20.070Z,3.00
2018-06-24T13:10:49.148Z,3.00
2018-06-24T13:13:18.450Z,2.43
2018-06-24T13:15:47.635Z,2.67
2018-06-24T13:18:16.829Z,3.10
2018-06-24T13:20:45.907Z,2.87
2018-06-24T13:23:14.923Z,3.17
2018-06-24T13:25:43.989Z,2.63
2018-06-24T13:28:14.157Z,3.43
2018-06-24T13:30:43.189Z,3.43
2018-06-24T13:33:12.223Z,3.13
2018-06-24T13:35:41.341Z,3.07
2018-06-24T13:38:10.403Z,3.40
2018-06-24T13:40:39.532Z,3.20
2018-06-24T13:43:08.606Z,3.20
2018-06-24T13:45:37.149Z,3.17
2018-06-24T13:48:07.055Z,2.50
2018-06-24T13:50:36.068Z,2.90
2018-06-24T13:53:05.292Z,3.20
2018-06-24T13:55:34.292Z,2.90
2018-06-24T13:58:03.421Z,3.20
2018-06-24T14:00:32.487Z,3.00
2018-06-24T14:03:01.513Z,2.83
2018-06-24T14:05:30.535Z,3.20
2018-06-24T14:07:59.559Z,3.70
2018-06-24T14:10:28.591Z,3.43
2018-06-24T14:12:57.592Z,3.37
2018-06-24T14:15:26.618Z,3.27
2018-06-24T14:17:55.657Z,3.15
2018-06-24T14:20:24.675Z,3.10
2018-06-24T14:22:53.702Z,3.23
2018-06-24T14:25:22.715Z,3.13
2018-06-24T14:27:52.004Z,3.60
2018-06-24T14:30:21.056Z,3.27
2018-06-24T14:32:50.149Z,3.37
2018-06-24T14:35:19.183Z,2.70
2018-06-24T14:37:48.200Z,3.13
2018-06-24T14:40:18.639Z,2.60
2018-06-24T14:42:47.665Z,2.77
2018-06-24T14:45:16.708Z,2.80
2018-06-24T14:47:45.755Z,3.07
2018-06-24T14:50:14.785Z,2.93
2018-06-24T14:52:43.866Z,2.70
2018-06-24T14:55:12.868Z,2.63
2018-06-24T14:57:41.926Z,2.80
2018-06-24T15:00:10.551Z,2.50
2018-06-24T15:02:42.519Z,2.60
2018-06-24T15:05:12.762Z,3.07
2018-06-24T15:07:42.560Z,2.70
2018-06-24T15:10:11.602Z,3.43
2018-06-24T15:12:40.583Z,2.20
2018-06-24T15:15:09.660Z,2.50
2018-06-24T15:17:38.684Z,2.90
2018-06-24T15:20:07.236Z,2.60
2018-06-24T15:22:36.240Z,3.07
2018-06-24T15:25:05.396Z,2.37
2018-06-24T15:27:34.524Z,2.80
2018-06-24T15:30:03.577Z,2.10
2018-06-24T15:32:32.642Z,3.03
2018-06-24T15:35:01.647Z,2.57
2018-06-24T15:37:31.433Z,2.90
2018-06-24T15:40:00.425Z,2.67
2018-06-24T15:42:29.469Z,2.70
2018-06-24T15:44:58.513Z,3.33
2018-06-24T15:47:27.532Z,2.70
2018-06-24T15:49:56.566Z,2.83
2018-06-24T15:52:25.564Z,2.77
2018-06-24T15:54:54.617Z,2.70
2018-06-24T15:57:23.613Z,2.60
2018-06-24T15:59:52.628Z,2.37
2018-06-24T16:02:21.666Z,2.63
2018-06-24T16:04:50.732Z,2.47
2018-06-24T16:07:19.302Z,2.50
2018-06-24T16:09:48.295Z,2.70
2018-06-24T16:12:17.338Z,2.53
2018-06-24T16:14:46.341Z,2.53
2018-06-24T16:17:15.397Z,2.33
2018-06-24T16:19:44.383Z,2.70
2018-06-24T16:22:13.421Z,2.63
2018-06-24T16:24:42.423Z,2.20
2018-06-24T16:27:11.469Z,3.03
2018-06-24T16:29:40.569Z,2.23
2018-06-24T16:32:09.620Z,2.50
2018-06-24T16:34:38.665Z,2.70
2018-06-24T16:37:07.708Z,2.20
2018-06-24T16:39:36.768Z,2.30
2018-06-24T16:42:05.887Z,2.60
2018-06-24T16:44:35.106Z,2.97
2018-06-24T16:47:04.137Z,2.70
2018-06-24T16:49:33.199Z,2.53
2018-06-24T16:52:02.254Z,2.40
2018-06-24T16:54:31.271Z,2.90
2018-06-24T16:57:00.304Z,2.60
2018-06-24T16:59:29.312Z,2.47
2018-06-24T17:01:58.335Z,2.37
2018-06-24T17:04:27.338Z,2.47
2018-06-24T17:06:56.343Z,2.40
2018-06-24T17:09:25.614Z,2.30
2018-06-24T17:11:54.631Z,3.73
2018-06-24T17:14:23.624Z,3.10
2018-06-24T17:16:52.691Z,2.60
2018-06-24T17:19:21.673Z,2.93
2018-06-24T17:21:50.709Z,4.43
2018-06-24T17:24:19.738Z,3.20
2018-06-24T17:26:48.851Z,2.90
2018-06-24T17:29:17.890Z,2.53
2018-06-24T17:31:46.983Z,2.67
2018-06-24T17:34:16.030Z,2.47
2018-06-24T17:36:45.042Z,3.20
2018-06-24T17:39:14.103Z,2.83
2018-06-24T17:41:45.914Z,2.80
2018-06-24T17:44:15.456Z,2.10
2018-06-24T17:46:44.519Z,2.03
2018-06-24T17:49:13.712Z,2.40
2018-06-24T17:51:42.742Z,2.00
2018-06-24T17:54:11.734Z,2.17
2018-06-24T17:56:40.849Z,2.43
2018-06-24T17:59:10.929Z,3.10
2018-06-24T18:01:40.239Z,2.17
2018-06-24T18:04:09.791Z,1.90
2018-06-24T18:06:39.163Z,2.27
2018-06-24T18:09:10.550Z,2.00
2018-06-24T18:11:40.117Z,2.93
2018-06-24T18:14:09.840Z,2.22
2018-06-24T18:16:39.469Z,2.13
2018-06-24T18:19:08.692Z,2.60
2018-06-24T18:21:38.231Z,2.20
2018-06-24T18:24:07.621Z,2.40
2018-06-24T18:26:37.507Z,1.87
2018-06-24T18:29:06.583Z,2.07
2018-06-24T18:31:37.660Z,2.10
2018-06-24T18:34:06.867Z,2.37
2018-06-24T18:36:35.939Z,2.30
2018-06-24T18:39:07.445Z,2.13
2018-06-24T18:41:36.621Z,1.67
2018-06-24T18:44:05.694Z,2.37
2018-06-24T18:46:36.658Z,2.07
2018-06-24T18:49:06.047Z,3.07
2018-06-24T18:51:35.630Z,2.03
2018-06-24T18:54:04.738Z,2.30
2018-06-24T18:56:33.844Z,2.27
2018-06-24T18:59:03.150Z,2.07
2018-06-24T19:01:32.802Z,2.00
2018-06-24T19:04:02.411Z,2.23
2018-06-24T19:06:32.307Z,2.03
2018-06-24T19:09:01.878Z,1.90
2018-06-24T19:11:30.947Z,2.27
2018-06-24T19:13:59.991Z,2.50
2018-06-24T19:16:29.020Z,2.50
2018-06-24T19:18:58.235Z,2.23
2018-06-24T19:21:28.047Z,2.10
2018-06-24T19:23:57.900Z,2.23
2018-06-24T19:26:27.253Z,2.13
2018-06-24T19:28:56.315Z,2.30
2018-06-24T19:31:26.371Z,2.57
2018-06-24T19:33:55.760Z,1.90
2018-06-24T19:36:25.398Z,2.43
2018-06-24T19:38:54.957Z,2.00
2018-06-24T19:41:24.095Z,2.00
2018-06-24T19:43:53.764Z,2.10
2018-06-24T19:46:22.783Z,1.93
2018-06-24T19:48:51.848Z,2.67
2018-06-24T19:51:21.152Z,2.20
2018-06-24T19:53:50.479Z,1.97
2018-06-24T19:56:19.855Z,2.03
2018-06-24T19:58:49.762Z,2.03
2018-06-24T20:01:19.088Z,2.70
2018-06-24T20:03:48.541Z,2.20
2018-06-24T20:06:17.896Z,2.10
2018-06-24T20:08:47.314Z,2.43
2018-06-24T20:11:16.668Z,2.70
2018-06-24T20:13:45.983Z,2.53
2018-06-24T20:16:15.164Z,2.43
2018-06-24T20:18:44.611Z,2.47
2018-06-24T20:21:13.914Z,3.00
2018-06-24T20:23:43.357Z,2.60
2018-06-24T20:26:12.698Z,2.37
2018-06-24T20:28:42.013Z,3.00
2018-06-24T20:31:12.234Z,3.03
2018-06-24T20:33:42.326Z,3.20
2018-06-24T20:36:11.746Z,3.00
2018-06-24T20:38:41.248Z,2.90
2018-06-24T20:41:10.618Z,3.00
2018-06-24T20:43:40.018Z,3.90
2018-06-24T20:46:09.294Z,2.97
2018-06-24T20:48:38.650Z,3.13
2018-06-24T20:51:07.977Z,3.13
2018-06-24T20:53:37.742Z,3.13
2018-06-24T20:56:07.128Z,3.27
2018-06-24T20:58:36.466Z,4.07
2018-06-24T21:01:05.875Z,3.43
2018-06-24T21:03:35.235Z,2.83
2018-06-24T21:06:04.864Z,4.00
2018-06-24T21:08:34.202Z,2.90
2018-06-24T21:11:03.281Z,3.50
2018-06-24T21:13:32.406Z,3.30
2018-06-24T21:16:01.532Z,3.17
2018-06-24T21:18:30.591Z,2.67
2018-06-24T21:20:59.632Z,3.37
2018-06-24T21:23:28.751Z,3.50
2018-06-24T21:25:57.815Z,3.60
2018-06-24T21:28:26.860Z,2.67
2018-06-24T21:30:56.079Z,2.77
2018-06-24T21:33:25.676Z,3.27
2018-06-24T21:35:55.099Z,2.87
2018-06-24T21:38:24.942Z,2.70
2018-06-24T21:40:54.612Z,2.90
2018-06-24T21:43:24.015Z,3.17
2018-06-24T21:45:53.229Z,2.47
2018-06-24T21:48:24.011Z,3.33
2018-06-24T21:50:54.025Z,3.00
2018-06-24T21:53:23.561Z,2.83
2018-06-24T21:55:53.329Z,3.00
2018-06-24T21:58:23.043Z,3.53
2018-06-24T22:00:52.662Z,3.67
2018-06-24T22:03:22.475Z,3.10
2018-06-24T22:05:52.144Z,3.40
2018-06-24T22:08:21.361Z,2.90
2018-06-24T22:10:50.771Z,3.40
2018-06-24T22:13:19.946Z,3.00
2018-06-24T22:15:48.983Z,3.00
2018-06-24T22:18:18.182Z,3.40
2018-06-24T22:20:47.366Z,3.23
2018-06-24T22:23:16.462Z,2.90
2018-06-24T22:25:45.464Z,3.50
2018-06-24T22:28:14.524Z,4.00
2018-06-24T22:30:43.579Z,2.83
2018-06-24T22:33:13.308Z,3.70
2018-06-24T22:35:42.371Z,3.20
2018-06-24T22:38:11.410Z,3.67
2018-06-24T22:40:40.452Z,4.60
2018-06-24T22:43:09.469Z,3.73
2018-06-24T22:45:38.550Z,4.17
2018-06-24T22:48:07.595Z,5.07
2018-06-24T22:50:36.686Z,4.50
2018-06-24T22:53:05.895Z,4.90
2018-06-24T22:55:35.013Z,5.70
2018-06-24T22:58:04.088Z,5.40
2018-06-24T23:00:33.452Z,5.60
2018-06-24T23:03:04.247Z,5.20
2018-06-24T23:05:33.306Z,6.20
2018-06-24T23:08:02.333Z,5.67
2018-06-24T23:10:31.312Z,5.83
2018-06-24T23:13:00.355Z,6.37
2018-06-24T23:15:29.435Z,6.87
2018-06-24T23:17:58.489Z,6.43
2018-06-24T23:20:27.485Z,6.60
2018-06-24T23:22:56.544Z,6.60
2018-06-24T23:25:25.563Z,6.20
2018-06-24T23:27:54.593Z,7.13
2018-06-24T23:30:23.605Z,7.07
2018-06-24T23:32:52.674Z,7.00
2018-06-24T23:35:21.717Z,6.73
2018-06-24T23:37:50.739Z,6.90
2018-06-24T23:40:19.734Z,7.30
2018-06-24T23:42:48.755Z,6.57
2018-06-24T23:45:17.819Z,7.87
2018-06-24T23:47:46.854Z,8.70
2018-06-24T23:50:15.894Z,8.30
2018-06-24T23:52:44.876Z,7.33
2018-06-24T23:55:13.952Z,8.40
2018-06-24T23:57:42.968Z,8.10
